sensor_id;sensor_type;location;lat;lon;timestamp;temperature;humidity
20512;DHT22;10414;52.074;5.126;2023-05-10T00:01:24;14.80;99.90
20512;DHT22;10414;52.074;5.126;2023-05-10T00:03:54;15.00;99.90
20512;DHT22;10414;52.074;5.126;2023-05-10T00:06:20;15.20;99.90
20512;DHT22;10414;52.074;5.126;2023-05-10T00:08:49;15.00;99.90
20512;DHT22;10414;52.074;5.126;2023-05-10T00:11:16;15.20;99.90
20512;DHT22;10414;52.074;5.126;2023-05-10T00:13:43;15.30;99.90
20512;DHT22;10414;52.074;5.126;2023-05-10T00:16:16;15.10;99.90
20512;DHT22;10414;52.074;5.126;2023-05-10T00:18:45;14.70;99.90
20512;DHT22;10414;52.074;5.126;2023-05-10T00:21:14;14.50;99.90
20512;DHT22;10414;52.074;5.126;2023-05-10T00:23:41;14.40;99.90
20512;DHT22;10414;52.074;5.126;2023-05-10T00:26:10;14.50;99.90
20512;DHT22;10414;52.074;5.126;2023-05-10T00:28:37;14.60;99.90
20512;DHT22;10414;52.074;5.126;2023-05-10T00:31:04;14.50;99.90
20512;DHT22;10414;52.074;5.126;2023-05-10T00:33:32;14.40;99.90
20512;DHT22;10414;52.074;5.126;2023-05-10T00:36:01;14.40;99.90
20512;DHT22;10414;52.074;5.126;2023-05-10T00:38:28;14.40;99.90
20512;DHT22;10414;52.074;5.126;2023-05-10T00:40:58;14.40;99.90
20512;DHT22;10414;52.074;5.126;2023-05-10T00:43:26;14.40;99.90
20512;DHT22;10414;52.074;5.126;2023-05-10T00:45:55;14.50;99.90
20512;DHT22;10414;52.074;5.126;2023-05-10T00:48:22;14.40;99.90
20512;DHT22;10414;52.074;5.126;2023-05-10T00:50:49;14.50;99.90
20512;DHT22;10414;52.074;5.126;2023-05-10T00:53:16;14.40;99.90
20512;DHT22;10414;52.074;5.126;2023-05-10T00:55:43;14.20;99.90
20512;DHT22;10414;52.074;5.126;2023-05-10T00:58:10;14.20;99.90
20512;DHT22;10414;52.074;5.126;2023-05-10T01:00:43;14.10;99.90
20512;DHT22;10414;52.074;5.126;2023-05-10T01:03:13;14.20;99.90
20512;DHT22;10414;52.074;5.126;2023-05-10T01:05:39;13.90;99.90
20512;DHT22;10414;52.074;5.126;2023-05-10T01:08:07;13.90;99.90
20512;DHT22;10414;52.074;5.126;2023-05-10T01:10:34;13.90;99.90
20512;DHT22;10414;52.074;5.126;2023-05-10T01:13:04;13.90;99.90
20512;DHT22;10414;52.074;5.126;2023-05-10T01:15:33;13.80;99.90
20512;DHT22;10414;52.074;5.126;2023-05-10T01:18:04;13.90;99.90
20512;DHT22;10414;52.074;5.126;2023-05-10T01:20:39;13.90;99.90
20512;DHT22;10414;52.074;5.126;2023-05-10T01:23:40;13.90;99.90
20512;DHT22;10414;52.074;5.126;2023-05-10T01:26:34;13.80;99.90
20512;DHT22;10414;52.074;5.126;2023-05-10T01:29:19;13.70;99.90
20512;DHT22;10414;52.074;5.126;2023-05-10T01:32:14;13.60;99.90
20512;DHT22;10414;52.074;5.126;2023-05-10T01:34:57;13.70;99.90
20512;DHT22;10414;52.074;5.126;2023-05-10T01:37:31;13.40;99.90
20512;DHT22;10414;52.074;5.126;2023-05-10T01:40:06;13.30;99.90
20512;DHT22;10414;52.074;5.126;2023-05-10T01:42:41;13.20;99.90
20512;DHT22;10414;52.074;5.126;2023-05-10T01:45:17;13.20;99.90
20512;DHT22;10414;52.074;5.126;2023-05-10T01:47:53;13.20;99.90
20512;DHT22;10414;52.074;5.126;2023-05-10T01:50:26;13.30;99.90
20512;DHT22;10414;52.074;5.126;2023-05-10T01:52:57;13.30;99.90
20512;DHT22;10414;52.074;5.126;2023-05-10T01:55:28;13.20;99.90
20512;DHT22;10414;52.074;5.126;2023-05-10T01:58:08;13.20;99.90
20512;DHT22;10414;52.074;5.126;2023-05-10T02:00:43;13.30;99.90
20512;DHT22;10414;52.074;5.126;2023-05-10T02:03:18;13.40;99.90
20512;DHT22;10414;52.074;5.126;2023-05-10T02:05:48;13.50;99.90
20512;DHT22;10414;52.074;5.126;2023-05-10T02:08:17;13.60;99.90
20512;DHT22;10414;52.074;5.126;2023-05-10T02:10:46;13.50;99.90
20512;DHT22;10414;52.074;5.126;2023-05-10T02:13:15;13.50;99.90
20512;DHT22;10414;52.074;5.126;2023-05-10T02:15:43;13.50;99.90
20512;DHT22;10414;52.074;5.126;2023-05-10T02:18:12;13.70;99.90
20512;DHT22;10414;52.074;5.126;2023-05-10T02:20:41;13.90;99.90
20512;DHT22;10414;52.074;5.126;2023-05-10T02:23:09;13.90;99.90
20512;DHT22;10414;52.074;5.126;2023-05-10T02:25:37;13.80;99.90
20512;DHT22;10414;52.074;5.126;2023-05-10T02:28:06;13.90;99.90
20512;DHT22;10414;52.074;5.126;2023-05-10T02:30:38;13.70;99.90
20512;DHT22;10414;52.074;5.126;2023-05-10T02:33:05;13.60;99.90
20512;DHT22;10414;52.074;5.126;2023-05-10T02:35:35;13.60;99.90
20512;DHT22;10414;52.074;5.126;2023-05-10T02:38:02;13.60;99.90
20512;DHT22;10414;52.074;5.126;2023-05-10T02:40:33;13.70;99.90
20512;DHT22;10414;52.074;5.126;2023-05-10T02:43:02;13.60;99.90
20512;DHT22;10414;52.074;5.126;2023-05-10T02:45:31;13.70;99.90
20512;DHT22;10414;52.074;5.126;2023-05-10T02:48:00;13.70;99.90
20512;DHT22;10414;52.074;5.126;2023-05-10T02:50:28;13.90;99.90
20512;DHT22;10414;52.074;5.126;2023-05-10T02:53:00;13.80;99.90
20512;DHT22;10414;52.074;5.126;2023-05-10T02:55:32;13.90;99.90
20512;DHT22;10414;52.074;5.126;2023-05-10T02:58:00;13.80;99.90
20512;DHT22;10414;52.074;5.126;2023-05-10T03:00:30;13.80;99.90
20512;DHT22;10414;52.074;5.126;2023-05-10T03:02:57;13.90;99.90
20512;DHT22;10414;52.074;5.126;2023-05-10T03:05:24;13.80;99.90
20512;DHT22;10414;52.074;5.126;2023-05-10T03:07:52;14.00;99.90
20512;DHT22;10414;52.074;5.126;2023-05-10T03:10:24;14.00;99.90
20512;DHT22;10414;52.074;5.126;2023-05-10T03:13:06;14.00;99.90
20512;DHT22;10414;52.074;5.126;2023-05-10T03:15:37;13.80;99.90
20512;DHT22;10414;52.074;5.126;2023-05-10T03:18:09;13.80;99.90
20512;DHT22;10414;52.074;5.126;2023-05-10T03:20:41;13.70;99.90
20512;DHT22;10414;52.074;5.126;2023-05-10T03:23:13;13.60;99.90
20512;DHT22;10414;52.074;5.126;2023-05-10T03:25:48;13.50;99.90
20512;DHT22;10414;52.074;5.126;2023-05-10T03:28:17;13.50;99.90
20512;DHT22;10414;52.074;5.126;2023-05-10T03:30:45;13.60;99.90
20512;DHT22;10414;52.074;5.126;2023-05-10T03:33:13;13.70;99.90
20512;DHT22;10414;52.074;5.126;2023-05-10T03:35:40;13.60;99.90
20512;DHT22;10414;52.074;5.126;2023-05-10T03:38:07;13.60;99.90
20512;DHT22;10414;52.074;5.126;2023-05-10T03:40:39;13.70;99.90
20512;DHT22;10414;52.074;5.126;2023-05-10T03:43:07;13.70;99.90
20512;DHT22;10414;52.074;5.126;2023-05-10T03:45:36;13.60;99.90
20512;DHT22;10414;52.074;5.126;2023-05-10T03:48:03;13.80;99.90
20512;DHT22;10414;52.074;5.126;2023-05-10T03:50:30;13.70;99.90
20512;DHT22;10414;52.074;5.126;2023-05-10T03:52:57;13.80;99.90
20512;DHT22;10414;52.074;5.126;2023-05-10T03:55:25;14.00;99.90
20512;DHT22;10414;52.074;5.126;2023-05-10T03:58:01;14.10;99.90
20512;DHT22;10414;52.074;5.126;2023-05-10T04:00:29;14.30;99.90
20512;DHT22;10414;52.074;5.126;2023-05-10T04:02:57;14.20;99.90
20512;DHT22;10414;52.074;5.126;2023-05-10T04:05:23;14.40;99.90
20512;DHT22;10414;52.074;5.126;2023-05-10T04:07:50;14.20;99.90
20512;DHT22;10414;52.074;5.126;2023-05-10T04:10:18;14.30;99.90
20512;DHT22;10414;52.074;5.126;2023-05-10T04:12:46;14.50;99.90
20512;DHT22;10414;52.074;5.126;2023-05-10T04:15:19;14.60;99.90
20512;DHT22;10414;52.074;5.126;2023-05-10T04:17:47;14.70;99.90
20512;DHT22;10414;52.074;5.126;2023-05-10T04:20:14;14.90;99.90
20512;DHT22;10414;52.074;5.126;2023-05-10T04:22:44;14.80;99.90
20512;DHT22;10414;52.074;5.126;2023-05-10T04:25:13;14.80;99.90
20512;DHT22;10414;52.074;5.126;2023-05-10T04:27:40;14.50;99.90
20512;DHT22;10414;52.074;5.126;2023-05-10T04:30:08;14.40;99.90
20512;DHT22;10414;52.074;5.126;2023-05-10T04:32:37;14.30;99.90
20512;DHT22;10414;52.074;5.126;2023-05-10T04:35:08;14.30;99.90
20512;DHT22;10414;52.074;5.126;2023-05-10T04:37:37;14.60;99.90
20512;DHT22;10414;52.074;5.126;2023-05-10T04:40:05;14.50;99.90
20512;DHT22;10414;52.074;5.126;2023-05-10T04:42:32;14.40;99.90
20512;DHT22;10414;52.074;5.126;2023-05-10T04:44:59;14.60;99.90
20512;DHT22;10414;52.074;5.126;2023-05-10T04:47:26;14.40;99.90
20512;DHT22;10414;52.074;5.126;2023-05-10T04:49:52;14.30;99.90
20512;DHT22;10414;52.074;5.126;2023-05-10T04:52:26;14.20;99.90
20512;DHT22;10414;52.074;5.126;2023-05-10T04:54:53;14.20;99.90
20512;DHT22;10414;52.074;5.126;2023-05-10T04:57:20;14.20;99.90
20512;DHT22;10414;52.074;5.126;2023-05-10T04:59:48;14.10;99.90
20512;DHT22;10414;52.074;5.126;2023-05-10T05:02:18;14.30;99.90
20512;DHT22;10414;52.074;5.126;2023-05-10T05:04:48;14.40;99.90
20512;DHT22;10414;52.074;5.126;2023-05-10T05:07:16;14.60;99.90
20512;DHT22;10414;52.074;5.126;2023-05-10T05:09:45;14.10;99.90
20512;DHT22;10414;52.074;5.126;2023-05-10T05:12:12;13.90;99.90
20512;DHT22;10414;52.074;5.126;2023-05-10T05:14:41;13.90;99.90
20512;DHT22;10414;52.074;5.126;2023-05-10T05:17:09;14.10;99.90
20512;DHT22;10414;52.074;5.126;2023-05-10T05:19:36;14.20;99.90
20512;DHT22;10414;52.074;5.126;2023-05-10T05:22:03;14.40;99.90
20512;DHT22;10414;52.074;5.126;2023-05-10T05:24:34;14.30;99.90
20512;DHT22;10414;52.074;5.126;2023-05-10T05:27:04;14.30;99.90
20512;DHT22;10414;52.074;5.126;2023-05-10T05:29:31;14.10;99.90
20512;DHT22;10414;52.074;5.126;2023-05-10T05:31:58;14.20;99.90
20512;DHT22;10414;52.074;5.126;2023-05-10T05:34:25;14.40;99.90
20512;DHT22;10414;52.074;5.126;2023-05-10T05:36:52;14.60;99.90
20512;DHT22;10414;52.074;5.126;2023-05-10T05:39:21;14.30;99.90
20512;DHT22;10414;52.074;5.126;2023-05-10T05:41:51;14.20;99.90
20512;DHT22;10414;52.074;5.126;2023-05-10T05:44:20;14.10;99.90
20512;DHT22;10414;52.074;5.126;2023-05-10T05:46:48;14.00;99.90
20512;DHT22;10414;52.074;5.126;2023-05-10T05:49:16;14.00;99.90
20512;DHT22;10414;52.074;5.126;2023-05-10T05:51:45;14.00;99.90
20512;DHT22;10414;52.074;5.126;2023-05-10T05:54:14;14.20;99.90
20512;DHT22;10414;52.074;5.126;2023-05-10T05:56:44;14.20;99.90
20512;DHT22;10414;52.074;5.126;2023-05-10T05:59:11;14.00;99.90
20512;DHT22;10414;52.074;5.126;2023-05-10T06:01:40;14.00;99.90
20512;DHT22;10414;52.074;5.126;2023-05-10T06:04:07;14.00;99.90
20512;DHT22;10414;52.074;5.126;2023-05-10T06:06:34;14.40;99.90
20512;DHT22;10414;52.074;5.126;2023-05-10T06:09:01;14.70;99.90
20512;DHT22;10414;52.074;5.126;2023-05-10T06:11:34;14.90;99.90
20512;DHT22;10414;52.074;5.126;2023-05-10T06:14:02;15.00;99.90
20512;DHT22;10414;52.074;5.126;2023-05-10T06:16:29;15.20;99.90
20512;DHT22;10414;52.074;5.126;2023-05-10T06:18:58;15.20;99.90
20512;DHT22;10414;52.074;5.126;2023-05-10T06:21:25;14.70;99.90
20512;DHT22;10414;52.074;5.126;2023-05-10T06:24:01;14.50;99.90
20512;DHT22;10414;52.074;5.126;2023-05-10T06:26:28;14.40;99.90
20512;DHT22;10414;52.074;5.126;2023-05-10T06:28:58;14.60;99.90
20512;DHT22;10414;52.074;5.126;2023-05-10T06:31:27;14.40;99.90
20512;DHT22;10414;52.074;5.126;2023-05-10T06:33:55;14.20;99.90
20512;DHT22;10414;52.074;5.126;2023-05-10T06:36:27;14.40;99.90
20512;DHT22;10414;52.074;5.126;2023-05-10T06:38:57;14.70;99.90
20512;DHT22;10414;52.074;5.126;2023-05-10T06:41:23;15.40;99.90
20512;DHT22;10414;52.074;5.126;2023-05-10T06:43:55;15.80;99.90
20512;DHT22;10414;52.074;5.126;2023-05-10T06:46:22;16.10;99.90
20512;DHT22;10414;52.074;5.126;2023-05-10T06:48:51;16.40;99.90
20512;DHT22;10414;52.074;5.126;2023-05-10T06:51:18;16.40;99.90
20512;DHT22;10414;52.074;5.126;2023-05-10T06:53:50;16.60;99.90
20512;DHT22;10414;52.074;5.126;2023-05-10T06:56:17;16.70;99.90
20512;DHT22;10414;52.074;5.126;2023-05-10T06:58:47;16.70;99.90
20512;DHT22;10414;52.074;5.126;2023-05-10T07:01:15;16.70;99.90
20512;DHT22;10414;52.074;5.126;2023-05-10T07:03:48;17.10;99.90
20512;DHT22;10414;52.074;5.126;2023-05-10T07:06:15;18.30;99.90
20512;DHT22;10414;52.074;5.126;2023-05-10T07:08:42;18.20;99.90
20512;DHT22;10414;52.074;5.126;2023-05-10T07:11:10;17.90;99.90
20512;DHT22;10414;52.074;5.126;2023-05-10T07:13:37;17.80;99.90
20512;DHT22;10414;52.074;5.126;2023-05-10T07:16:06;17.90;99.90
20512;DHT22;10414;52.074;5.126;2023-05-10T07:18:34;17.60;99.90
20512;DHT22;10414;52.074;5.126;2023-05-10T07:21:03;17.40;99.90
20512;DHT22;10414;52.074;5.126;2023-05-10T07:23:34;17.10;99.90
20512;DHT22;10414;52.074;5.126;2023-05-10T07:26:04;17.20;99.90
20512;DHT22;10414;52.074;5.126;2023-05-10T07:28:47;17.10;99.90
20512;DHT22;10414;52.074;5.126;2023-05-10T07:31:14;17.00;99.90
20512;DHT22;10414;52.074;5.126;2023-05-10T07:33:41;16.50;99.90
20512;DHT22;10414;52.074;5.126;2023-05-10T07:36:08;16.20;99.90
20512;DHT22;10414;52.074;5.126;2023-05-10T07:38:35;16.00;99.90
20512;DHT22;10414;52.074;5.126;2023-05-10T07:41:05;16.20;99.90
20512;DHT22;10414;52.074;5.126;2023-05-10T07:43:34;16.10;99.90
20512;DHT22;10414;52.074;5.126;2023-05-10T07:46:02;16.00;99.90
20512;DHT22;10414;52.074;5.126;2023-05-10T07:48:29;16.10;99.90
20512;DHT22;10414;52.074;5.126;2023-05-10T07:50:56;16.20;99.90
20512;DHT22;10414;52.074;5.126;2023-05-10T07:53:23;16.50;99.90
20512;DHT22;10414;52.074;5.126;2023-05-10T07:55:50;16.60;99.90
20512;DHT22;10414;52.074;5.126;2023-05-10T07:58:18;16.30;99.90
20512;DHT22;10414;52.074;5.126;2023-05-10T08:00:46;16.40;99.90
20512;DHT22;10414;52.074;5.126;2023-05-10T08:03:16;16.40;99.90
20512;DHT22;10414;52.074;5.126;2023-05-10T08:05:42;16.40;99.90
20512;DHT22;10414;52.074;5.126;2023-05-10T08:08:09;16.40;99.90
20512;DHT22;10414;52.074;5.126;2023-05-10T08:10:36;16.60;99.90
20512;DHT22;10414;52.074;5.126;2023-05-10T08:13:03;17.00;99.90
20512;DHT22;10414;52.074;5.126;2023-05-10T08:15:30;17.00;99.90
20512;DHT22;10414;52.074;5.126;2023-05-10T08:17:59;16.80;99.90
20512;DHT22;10414;52.074;5.126;2023-05-10T08:20:27;17.00;99.90
20512;DHT22;10414;52.074;5.126;2023-05-10T08:22:54;17.10;99.90
20512;DHT22;10414;52.074;5.126;2023-05-10T08:25:21;17.40;99.90
20512;DHT22;10414;52.074;5.126;2023-05-10T08:27:48;17.10;99.90
20512;DHT22;10414;52.074;5.126;2023-05-10T08:30:15;17.20;99.90
20512;DHT22;10414;52.074;5.126;2023-05-10T08:32:43;17.00;99.90
20512;DHT22;10414;52.074;5.126;2023-05-10T08:35:10;17.10;99.90
20512;DHT22;10414;52.074;5.126;2023-05-10T08:37:38;17.10;99.90
20512;DHT22;10414;52.074;5.126;2023-05-10T08:40:06;17.30;99.90
20512;DHT22;10414;52.074;5.126;2023-05-10T08:42:34;17.40;99.90
20512;DHT22;10414;52.074;5.126;2023-05-10T08:45:05;17.50;99.90
20512;DHT22;10414;52.074;5.126;2023-05-10T08:47:36;17.60;99.90
20512;DHT22;10414;52.074;5.126;2023-05-10T08:50:06;17.50;99.90
20512;DHT22;10414;52.074;5.126;2023-05-10T08:52:39;17.40;99.90
20512;DHT22;10414;52.074;5.126;2023-05-10T08:55:07;18.00;99.90
20512;DHT22;10414;52.074;5.126;2023-05-10T08:57:33;18.00;99.90
20512;DHT22;10414;52.074;5.126;2023-05-10T09:00:05;18.20;99.90
20512;DHT22;10414;52.074;5.126;2023-05-10T09:02:33;18.10;99.90
20512;DHT22;10414;52.074;5.126;2023-05-10T09:05:01;18.30;99.90
20512;DHT22;10414;52.074;5.126;2023-05-10T09:07:30;17.90;99.90
20512;DHT22;10414;52.074;5.126;2023-05-10T09:09:58;17.50;99.90
20512;DHT22;10414;52.074;5.126;2023-05-10T09:12:27;17.60;99.90
20512;DHT22;10414;52.074;5.126;2023-05-10T09:14:54;17.50;99.90
20512;DHT22;10414;52.074;5.126;2023-05-10T09:17:23;17.60;99.90
20512;DHT22;10414;52.074;5.126;2023-05-10T09:19:56;17.90;99.90
20512;DHT22;10414;52.074;5.126;2023-05-10T09:22:26;18.10;99.90
20512;DHT22;10414;52.074;5.126;2023-05-10T09:25:05;18.50;99.90
20512;DHT22;10414;52.074;5.126;2023-05-10T09:27:33;19.30;99.90
20512;DHT22;10414;52.074;5.126;2023-05-10T09:30:00;19.30;99.90
20512;DHT22;10414;52.074;5.126;2023-05-10T09:32:36;19.20;99.90
20512;DHT22;10414;52.074;5.126;2023-05-10T09:35:07;19.20;99.90
20512;DHT22;10414;52.074;5.126;2023-05-10T09:37:33;18.80;99.90
20512;DHT22;10414;52.074;5.126;2023-05-10T09:40:06;19.20;99.90
20512;DHT22;10414;52.074;5.126;2023-05-10T09:42:34;19.40;99.90
20512;DHT22;10414;52.074;5.126;2023-05-10T09:45:03;19.00;99.90
20512;DHT22;10414;52.074;5.126;2023-05-10T09:47:32;19.00;99.90
20512;DHT22;10414;52.074;5.126;2023-05-10T09:50:00;19.10;99.90
20512;DHT22;10414;52.074;5.126;2023-05-10T09:52:29;18.90;99.90
20512;DHT22;10414;52.074;5.126;2023-05-10T09:54:56;18.80;99.90
20512;DHT22;10414;52.074;5.126;2023-05-10T09:57:25;18.40;99.90
20512;DHT22;10414;52.074;5.126;2023-05-10T09:59:52;18.10;99.90
20512;DHT22;10414;52.074;5.126;2023-05-10T10:02:28;18.00;99.90
20512;DHT22;10414;52.074;5.126;2023-05-10T10:04:55;17.90;99.90
20512;DHT22;10414;52.074;5.126;2023-05-10T10:07:23;17.80;99.90
20512;DHT22;10414;52.074;5.126;2023-05-10T10:09:52;17.40;99.90
20512;DHT22;10414;52.074;5.126;2023-05-10T10:12:19;17.50;99.90
20512;DHT22;10414;52.074;5.126;2023-05-10T10:14:48;17.10;99.90
20512;DHT22;10414;52.074;5.126;2023-05-10T10:17:18;17.60;99.90
20512;DHT22;10414;52.074;5.126;2023-05-10T10:19:48;17.40;99.90
20512;DHT22;10414;52.074;5.126;2023-05-10T10:22:16;17.20;99.90
20512;DHT22;10414;52.074;5.126;2023-05-10T10:24:43;17.20;99.90
20512;DHT22;10414;52.074;5.126;2023-05-10T10:27:21;17.30;99.90
20512;DHT22;10414;52.074;5.126;2023-05-10T10:30:06;17.70;99.90
20512;DHT22;10414;52.074;5.126;2023-05-10T10:32:46;17.80;99.90
20512;DHT22;10414;52.074;5.126;2023-05-10T10:35:15;18.00;99.90
20512;DHT22;10414;52.074;5.126;2023-05-10T10:37:46;18.40;99.90
20512;DHT22;10414;52.074;5.126;2023-05-10T10:40:24;19.00;99.90
20512;DHT22;10414;52.074;5.126;2023-05-10T10:42:55;19.30;99.90
20512;DHT22;10414;52.074;5.126;2023-05-10T10:45:27;19.30;99.90
20512;DHT22;10414;52.074;5.126;2023-05-10T10:48:21;19.30;99.90
20512;DHT22;10414;52.074;5.126;2023-05-10T10:50:56;19.70;99.90
20512;DHT22;10414;52.074;5.126;2023-05-10T10:53:26;19.90;99.90
20512;DHT22;10414;52.074;5.126;2023-05-10T10:56:04;20.00;99.90
20512;DHT22;10414;52.074;5.126;2023-05-10T10:58:34;20.50;99.90
20512;DHT22;10414;52.074;5.126;2023-05-10T11:01:14;21.10;99.90
20512;DHT22;10414;52.074;5.126;2023-05-10T11:06:30;21.60;99.90
20512;DHT22;10414;52.074;5.126;2023-05-10T11:08:58;22.00;99.90
20512;DHT22;10414;52.074;5.126;2023-05-10T11:11:25;22.40;99.90
20512;DHT22;10414;52.074;5.126;2023-05-10T11:13:52;22.30;99.90
20512;DHT22;10414;52.074;5.126;2023-05-10T11:16:26;22.30;99.90
20512;DHT22;10414;52.074;5.126;2023-05-10T11:18:54;22.20;99.90
20512;DHT22;10414;52.074;5.126;2023-05-10T11:21:23;21.20;99.90
20512;DHT22;10414;52.074;5.126;2023-05-10T11:23:51;20.50;99.90
20512;DHT22;10414;52.074;5.126;2023-05-10T11:26:22;20.80;99.90
20512;DHT22;10414;52.074;5.126;2023-05-10T11:28:52;20.50;99.90
20512;DHT22;10414;52.074;5.126;2023-05-10T11:31:22;20.00;99.90
20512;DHT22;10414;52.074;5.126;2023-05-10T11:33:53;20.00;99.90
20512;DHT22;10414;52.074;5.126;2023-05-10T11:36:21;19.80;99.90
20512;DHT22;10414;52.074;5.126;2023-05-10T11:38:51;20.20;99.90
20512;DHT22;10414;52.074;5.126;2023-05-10T11:41:19;20.20;99.90
20512;DHT22;10414;52.074;5.126;2023-05-10T11:43:49;20.60;99.90
20512;DHT22;10414;52.074;5.126;2023-05-10T11:46:19;20.90;99.90
20512;DHT22;10414;52.074;5.126;2023-05-10T11:48:48;21.10;99.90
20512;DHT22;10414;52.074;5.126;2023-05-10T11:51:20;20.90;99.90
20512;DHT22;10414;52.074;5.126;2023-05-10T11:53:48;20.30;99.90
20512;DHT22;10414;52.074;5.126;2023-05-10T11:56:16;20.00;99.90
20512;DHT22;10414;52.074;5.126;2023-05-10T11:58:43;19.80;99.90
20512;DHT22;10414;52.074;5.126;2023-05-10T12:01:10;19.20;99.90
20512;DHT22;10414;52.074;5.126;2023-05-10T12:03:39;19.20;99.90
20512;DHT22;10414;52.074;5.126;2023-05-10T12:06:08;19.00;99.90
20512;DHT22;10414;52.074;5.126;2023-05-10T12:08:35;19.00;99.90
20512;DHT22;10414;52.074;5.126;2023-05-10T12:11:06;19.30;99.90
20512;DHT22;10414;52.074;5.126;2023-05-10T12:13:37;18.60;99.90
20512;DHT22;10414;52.074;5.126;2023-05-10T12:16:14;18.40;99.90
20512;DHT22;10414;52.074;5.126;2023-05-10T12:18:44;18.40;99.90
20512;DHT22;10414;52.074;5.126;2023-05-10T12:21:20;18.50;99.90
20512;DHT22;10414;52.074;5.126;2023-05-10T12:23:49;18.40;99.90
20512;DHT22;10414;52.074;5.126;2023-05-10T12:26:24;18.20;99.90
20512;DHT22;10414;52.074;5.126;2023-05-10T12:28:53;17.60;99.90
20512;DHT22;10414;52.074;5.126;2023-05-10T12:31:20;17.60;99.90
20512;DHT22;10414;52.074;5.126;2023-05-10T12:33:49;17.30;99.90
20512;DHT22;10414;52.074;5.126;2023-05-10T12:36:22;16.90;99.90
20512;DHT22;10414;52.074;5.126;2023-05-10T12:38:49;16.70;99.90
20512;DHT22;10414;52.074;5.126;2023-05-10T12:41:18;16.60;99.90
20512;DHT22;10414;52.074;5.126;2023-05-10T12:43:47;16.10;99.90
20512;DHT22;10414;52.074;5.126;2023-05-10T12:46:17;15.60;99.90
20512;DHT22;10414;52.074;5.126;2023-05-10T12:48:44;15.60;99.90
20512;DHT22;10414;52.074;5.126;2023-05-10T12:51:11;15.80;99.90
20512;DHT22;10414;52.074;5.126;2023-05-10T12:53:45;15.70;99.90
20512;DHT22;10414;52.074;5.126;2023-05-10T12:56:16;15.70;99.90
20512;DHT22;10414;52.074;5.126;2023-05-10T12:58:43;16.00;99.90
20512;DHT22;10414;52.074;5.126;2023-05-10T13:01:13;16.00;99.90
20512;DHT22;10414;52.074;5.126;2023-05-10T13:03:42;16.00;99.90
20512;DHT22;10414;52.074;5.126;2023-05-10T13:06:09;16.00;99.90
20512;DHT22;10414;52.074;5.126;2023-05-10T13:08:36;16.10;99.90
20512;DHT22;10414;52.074;5.126;2023-05-10T13:11:05;16.30;99.90
20512;DHT22;10414;52.074;5.126;2023-05-10T13:13:33;16.50;99.90
20512;DHT22;10414;52.074;5.126;2023-05-10T13:16:03;16.40;99.90
20512;DHT22;10414;52.074;5.126;2023-05-10T13:18:30;16.40;99.90
20512;DHT22;10414;52.074;5.126;2023-05-10T13:20:57;16.50;99.90
20512;DHT22;10414;52.074;5.126;2023-05-10T13:23:25;16.60;99.90
20512;DHT22;10414;52.074;5.126;2023-05-10T13:25:52;16.90;99.90
20512;DHT22;10414;52.074;5.126;2023-05-10T13:28:26;16.90;99.90
20512;DHT22;10414;52.074;5.126;2023-05-10T13:30:53;17.00;99.90
20512;DHT22;10414;52.074;5.126;2023-05-10T13:33:20;17.00;99.90
20512;DHT22;10414;52.074;5.126;2023-05-10T13:35:46;17.10;99.90
20512;DHT22;10414;52.074;5.126;2023-05-10T13:38:13;17.30;99.90
20512;DHT22;10414;52.074;5.126;2023-05-10T13:40:40;17.60;99.90
20512;DHT22;10414;52.074;5.126;2023-05-10T13:43:13;17.80;99.90
20512;DHT22;10414;52.074;5.126;2023-05-10T13:45:42;17.80;99.90
20512;DHT22;10414;52.074;5.126;2023-05-10T13:48:08;17.60;99.90
20512;DHT22;10414;52.074;5.126;2023-05-10T13:50:35;17.50;99.90
20512;DHT22;10414;52.074;5.126;2023-05-10T13:53:02;17.10;99.90
20512;DHT22;10414;52.074;5.126;2023-05-10T13:55:31;17.30;99.90
20512;DHT22;10414;52.074;5.126;2023-05-10T13:57:59;17.00;99.90
20512;DHT22;10414;52.074;5.126;2023-05-10T14:00:26;17.10;99.90
20512;DHT22;10414;52.074;5.126;2023-05-10T14:02:54;17.00;99.90
20512;DHT22;10414;52.074;5.126;2023-05-10T14:05:21;17.10;99.90
20512;DHT22;10414;52.074;5.126;2023-05-10T14:07:50;17.30;99.90
20512;DHT22;10414;52.074;5.126;2023-05-10T14:10:17;17.40;99.90
20512;DHT22;10414;52.074;5.126;2023-05-10T14:12:44;17.40;99.90
20512;DHT22;10414;52.074;5.126;2023-05-10T14:15:11;17.50;99.90
20512;DHT22;10414;52.074;5.126;2023-05-10T14:17:40;17.50;99.90
20512;DHT22;10414;52.074;5.126;2023-05-10T14:20:09;17.30;99.90
20512;DHT22;10414;52.074;5.126;2023-05-10T14:22:36;17.10;99.90
20512;DHT22;10414;52.074;5.126;2023-05-10T14:25:06;17.30;99.90
20512;DHT22;10414;52.074;5.126;2023-05-10T14:27:36;17.30;99.90
20512;DHT22;10414;52.074;5.126;2023-05-10T14:30:04;17.50;99.90
20512;DHT22;10414;52.074;5.126;2023-05-10T14:32:31;17.70;99.90
20512;DHT22;10414;52.074;5.126;2023-05-10T14:34:58;17.80;99.90
20512;DHT22;10414;52.074;5.126;2023-05-10T14:37:26;17.80;99.90
20512;DHT22;10414;52.074;5.126;2023-05-10T14:39:53;17.40;99.90
20512;DHT22;10414;52.074;5.126;2023-05-10T14:42:20;17.30;99.90
20512;DHT22;10414;52.074;5.126;2023-05-10T14:44:50;17.50;99.90
20512;DHT22;10414;52.074;5.126;2023-05-10T14:47:17;17.50;99.90
20512;DHT22;10414;52.074;5.126;2023-05-10T14:49:44;17.70;99.90
20512;DHT22;10414;52.074;5.126;2023-05-10T14:52:10;17.60;99.90
20512;DHT22;10414;52.074;5.126;2023-05-10T14:54:39;17.50;99.90
20512;DHT22;10414;52.074;5.126;2023-05-10T14:57:08;17.50;99.90
20512;DHT22;10414;52.074;5.126;2023-05-10T14:59:35;17.50;99.90
20512;DHT22;10414;52.074;5.126;2023-05-10T15:02:04;17.50;99.90
20512;DHT22;10414;52.074;5.126;2023-05-10T15:04:31;17.60;99.90
20512;DHT22;10414;52.074;5.126;2023-05-10T15:07:00;17.60;99.90
20512;DHT22;10414;52.074;5.126;2023-05-10T15:09:27;17.40;99.90
20512;DHT22;10414;52.074;5.126;2023-05-10T15:11:57;17.30;99.90
20512;DHT22;10414;52.074;5.126;2023-05-10T15:14:24;17.30;99.90
20512;DHT22;10414;52.074;5.126;2023-05-10T15:17:01;17.40;99.90
20512;DHT22;10414;52.074;5.126;2023-05-10T15:19:28;17.30;99.90
20512;DHT22;10414;52.074;5.126;2023-05-10T15:22:04;17.10;99.90
20512;DHT22;10414;52.074;5.126;2023-05-10T15:24:31;17.40;99.90
20512;DHT22;10414;52.074;5.126;2023-05-10T15:27:00;17.50;99.90
20512;DHT22;10414;52.074;5.126;2023-05-10T15:29:28;17.50;99.90
20512;DHT22;10414;52.074;5.126;2023-05-10T15:31:57;17.50;99.90
20512;DHT22;10414;52.074;5.126;2023-05-10T15:34:23;17.40;99.90
20512;DHT22;10414;52.074;5.126;2023-05-10T15:36:50;17.30;99.90
20512;DHT22;10414;52.074;5.126;2023-05-10T15:39:22;17.50;99.90
20512;DHT22;10414;52.074;5.126;2023-05-10T15:41:48;17.70;99.90
20512;DHT22;10414;52.074;5.126;2023-05-10T15:44:17;18.40;99.90
20512;DHT22;10414;52.074;5.126;2023-05-10T15:46:44;18.70;99.90